Time;durP1;ratioP1;P1;durP2;ratioP2;P2;SDS_P1;SDS_P2;PMS_P1;PMS_P2;Temp;Humidity;BMP_temperature;BMP_pressure;BME280_temperature;BME280_humidity;BME280_pressure;Samples;Min_cycle;Max_cycle;Signal;HPM_P1;HPM_P2
2023/05/06 00:01:16;;;;;;;7.45;4.72;;;23.50;44.20;;;;;;7606204;23;80756;-61
2023/05/06 00:04:16;;;;;;;11.50;5.47;;;23.50;44.30;;;;;;7605287;23;80217;-62
2023/05/06 00:07:17;;;;;;;7.10;4.80;;;23.50;44.40;;;;;;7605754;23;80415;-61
2023/05/06 00:10:17;;;;;;;8.43;4.68;;;23.50;44.40;;;;;;7605508;23;80840;-71
2023/05/06 00:13:18;;;;;;;9.23;4.95;;;23.50;44.30;;;;;;7578756;23;83274;-73
2023/05/06 00:16:19;;;;;;;7.82;5.22;;;23.60;44.20;;;;;;7607092;23;81019;-74
2023/05/06 00:19:19;;;;;;;7.47;4.25;;;23.50;44.10;;;;;;7579616;23;81950;-75
2023/05/06 00:22:20;;;;;;;5.30;4.05;;;23.50;44.20;;;;;;7605577;23;80522;-75
2023/05/06 00:25:20;;;;;;;7.63;4.35;;;23.60;44.30;;;;;;7606509;23;80294;-74
2023/05/06 00:28:21;;;;;;;5.88;4.07;;;23.50;44.20;;;;;;7605733;23;80958;-76
2023/05/06 00:31:21;;;;;;;6.47;4.55;;;23.50;44.10;;;;;;7602248;23;80258;-76
2023/05/06 00:34:22;;;;;;;6.03;4.20;;;23.50;44.10;;;;;;7578103;23;83010;-73
2023/05/06 00:37:23;;;;;;;8.98;4.20;;;23.60;44.20;;;;;;7604457;23;80482;-72
2023/05/06 00:40:24;;;;;;;6.50;4.70;;;23.60;44.10;;;;;;7578708;23;80178;-74
2023/05/06 00:43:24;;;;;;;6.30;4.22;;;23.60;44.10;;;;;;7603375;23;80757;-70
2023/05/06 00:46:25;;;;;;;5.43;3.90;;;23.50;44.10;;;;;;7602905;23;86102;-71
2023/05/06 00:49:25;;;;;;;5.15;3.80;;;23.50;44.10;;;;;;7594575;23;80933;-60
2023/05/06 00:52:26;;;;;;;6.38;4.05;;;23.60;44.10;;;;;;7574755;23;81482;-58
2023/05/06 00:55:26;;;;;;;8.68;4.32;;;23.50;44.00;;;;;;7596332;23;80885;-58
2023/05/06 00:58:27;;;;;;;6.57;3.90;;;23.50;44.00;;;;;;7600027;23;81566;-58
2023/05/06 01:01:28;;;;;;;4.95;3.58;;;23.50;44.00;;;;;;7604333;23;80398;-57
2023/05/06 01:04:29;;;;;;;5.20;3.42;;;23.50;44.00;;;;;;7577066;23;81692;-58
2023/05/06 01:07:30;;;;;;;5.97;3.83;;;23.60;44.00;;;;;;7602202;23;80394;-61
2023/05/06 01:10:30;;;;;;;7.78;4.45;;;23.50;43.90;;;;;;7605194;23;81268;-64
2023/05/06 01:13:31;;;;;;;6.63;3.60;;;23.60;44.00;;;;;;7604283;23;80371;-62
2023/05/06 01:16:31;;;;;;;4.88;3.30;;;23.50;43.90;;;;;;7604904;23;80403;-62
2023/05/06 01:19:33;;;;;;;6.43;4.10;;;23.50;44.00;;;;;;7577193;23;83102;-61
2023/05/06 01:22:34;;;;;;;7.10;3.83;;;23.50;44.10;;;;;;7603898;23;80162;-61
2023/05/06 01:25:34;;;;;;;5.40;3.80;;;23.50;44.00;;;;;;7604694;23;80380;-66
2023/05/06 01:28:35;;;;;;;5.90;3.60;;;23.50;43.90;;;;;;7605440;23;80496;-65
2023/05/06 01:31:36;;;;;;;6.45;3.90;;;23.60;43.90;;;;;;7578608;23;83838;-64
2023/05/06 01:34:37;;;;;;;5.15;3.65;;;23.50;43.90;;;;;;7604353;23;80831;-65
2023/05/06 01:37:38;;;;;;;5.32;3.50;;;23.50;43.90;;;;;;7577591;23;82904;-64
2023/05/06 01:40:40;;;;;;;6.93;4.20;;;23.50;43.90;;;;;;7577558;23;83150;-64
2023/05/06 01:43:40;;;;;;;4.60;3.35;;;23.50;43.80;;;;;;7603496;23;80866;-56
2023/05/06 01:46:42;;;;;;;6.50;4.13;;;23.50;43.80;;;;;;7577221;23;81865;-59
2023/05/06 01:49:45;;;;;;;7.25;3.60;;;23.50;43.90;;;;;;7575377;23;81437;-56
2023/05/06 01:52:46;;;;;;;5.90;3.50;;;23.40;43.70;;;;;;7603838;23;80378;-55
2023/05/06 01:55:47;;;;;;;4.93;3.60;;;23.50;43.80;;;;;;7604163;23;80386;-56
2023/05/06 01:58:49;;;;;;;5.50;3.42;;;23.50;44.40;;;;;;7576715;23;83654;-58
2023/05/06 02:01:50;;;;;;;4.63;3.47;;;23.50;43.80;;;;;;7576804;23;86850;-62
2023/05/06 02:04:50;;;;;;;5.30;3.72;;;23.50;43.70;;;;;;7578237;23;83320;-60
2023/05/06 02:07:51;;;;;;;5.30;3.55;;;23.50;43.70;;;;;;7603787;23;80686;-60
2023/05/06 02:10:52;;;;;;;5.90;3.47;;;23.50;43.70;;;;;;7576310;23;82676;-59
2023/05/06 02:13:54;;;;;;;9.15;3.67;;;23.50;43.80;;;;;;7577808;23;83302;-59
2023/05/06 02:16:54;;;;;;;5.28;3.55;;;23.50;43.80;;;;;;7605652;23;80273;-60
2023/05/06 02:19:55;;;;;;;7.75;3.90;;;23.50;43.80;;;;;;7605745;23;80225;-56
2023/05/06 02:22:56;;;;;;;6.22;3.45;;;23.50;43.80;;;;;;7576754;23;83651;-56
2023/05/06 02:25:57;;;;;;;5.25;3.63;;;23.50;43.90;;;;;;7605008;23;80095;-55
2023/05/06 02:28:58;;;;;;;8.35;4.25;;;23.50;44.00;;;;;;7574156;23;83219;-60
2023/05/06 02:31:58;;;;;;;6.55;3.60;;;23.50;44.10;;;;;;7578179;23;83508;-58
2023/05/06 02:34:59;;;;;;;5.35;3.75;;;23.50;44.00;;;;;;7605625;23;80563;-59
2023/05/06 02:37:59;;;;;;;4.97;3.67;;;23.50;43.90;;;;;;7604820;23;80283;-64
2023/05/06 02:41:00;;;;;;;4.38;3.25;;;23.50;43.90;;;;;;7578702;23;83172;-63
2023/05/06 02:44:02;;;;;;;5.10;3.33;;;23.50;44.10;;;;;;7578158;23;81286;-64
2023/05/06 02:47:04;;;;;;;4.90;3.40;;;23.50;43.90;;;;;;7579029;23;82503;-66
2023/05/06 02:50:04;;;;;;;6.63;3.00;;;23.50;43.80;;;;;;7604387;23;80567;-64
2023/05/06 02:53:05;;;;;;;5.65;4.03;;;23.50;43.80;;;;;;7601496;23;80802;-65
2023/05/06 02:56:06;;;;;;;6.00;3.72;;;23.50;43.80;;;;;;7570689;23;83375;-69
2023/05/06 02:59:06;;;;;;;5.18;3.40;;;23.50;43.90;;;;;;7600658;23;80381;-68
2023/05/06 03:02:07;;;;;;;4.70;2.80;;;23.50;43.80;;;;;;7574815;23;83033;-65
2023/05/06 03:05:08;;;;;;;4.88;3.28;;;23.50;44.00;;;;;;7574532;23;82978;-67
2023/05/06 03:08:09;;;;;;;5.90;3.60;;;23.50;43.80;;;;;;7577561;23;82887;-68
2023/05/06 03:11:10;;;;;;;6.25;3.65;;;23.40;43.70;;;;;;7575036;23;81320;-67
2023/05/06 03:14:11;;;;;;;6.88;3.35;;;23.50;43.80;;;;;;7577226;23;82382;-64
2023/05/06 03:17:12;;;;;;;4.47;2.80;;;23.40;43.80;;;;;;7601866;23;80680;-63
2023/05/06 03:20:13;;;;;;;4.93;3.15;;;23.40;43.70;;;;;;7601607;23;80733;-62
2023/05/06 03:23:18;;;;;;;5.03;3.03;;;23.40;43.80;;;;;;7574857;23;83171;-61
2023/05/06 03:26:20;;;;;;;4.10;2.85;;;23.40;44.00;;;;;;7575032;23;81517;-63
2023/05/06 03:29:21;;;;;;;4.22;3.40;;;23.40;44.10;;;;;;7575486;23;83794;-63
2023/05/06 03:32:22;;;;;;;4.22;3.10;;;23.40;44.00;;;;;;7575908;23;83061;-77
2023/05/06 03:35:23;;;;;;;4.25;3.08;;;23.40;44.10;;;;;;7602815;23;80884;-73
2023/05/06 03:38:27;;;;;;;10.98;3.00;;;23.40;44.10;;;;;;7574535;23;83747;-68
2023/05/06 03:41:34;;;;;;;5.45;3.38;;;23.40;44.10;;;;;;7574844;23;83337;-72
2023/05/06 03:44:35;;;;;;;5.85;2.95;;;23.40;44.00;;;;;;7575085;23;83263;-71
2023/05/06 03:47:37;;;;;;;5.05;3.15;;;23.50;43.90;;;;;;7574826;23;82531;-70
2023/05/06 03:50:39;;;;;;;4.38;3.15;;;23.50;43.90;;;;;;7576053;23;82521;-70
2023/05/06 03:53:40;;;;;;;5.65;3.30;;;23.50;43.90;;;;;;7576528;23;81447;-67
2023/05/06 03:56:40;;;;;;;4.90;2.97;;;23.50;44.10;;;;;;7578031;23;83399;-73
2023/05/06 03:59:42;;;;;;;4.13;2.78;;;23.50;44.40;;;;;;7575148;23;83279;-71
2023/05/06 04:02:43;;;;;;;5.20;2.90;;;23.50;44.30;;;;;;7575766;23;81427;-77
2023/05/06 04:05:48;;;;;;;4.33;2.90;;;23.50;44.30;;;;;;7576313;23;81562;-71
2023/05/06 04:08:50;;;;;;;3.90;3.08;;;23.50;44.50;;;;;;7576920;23;81816;-60
2023/05/06 04:11:52;;;;;;;3.60;2.58;;;23.50;44.50;;;;;;7576135;23;81541;-62
2023/05/06 04:14:53;;;;;;;4.10;2.70;;;23.50;44.30;;;;;;7577846;23;82819;-61
2023/05/06 04:17:54;;;;;;;3.80;2.60;;;23.50;45.00;;;;;;7575768;23;82442;-60
2023/05/06 04:20:55;;;;;;;4.55;2.97;;;23.50;45.00;;;;;;7568737;23;82905;-60
2023/05/06 04:23:55;;;;;;;5.95;2.60;;;23.50;44.70;;;;;;7602782;23;80404;-60
2023/05/06 04:27:04;;;;;;;3.20;2.70;;;23.50;45.00;;;;;;7571156;23;83319;-60
2023/05/06 04:30:05;;;;;;;4.32;2.90;;;23.50;44.80;;;;;;7570661;23;82986;-60
2023/05/06 04:33:07;;;;;;;4.45;2.75;;;23.50;44.80;;;;;;7574742;23;83206;-60
2023/05/06 04:36:08;;;;;;;5.80;2.30;;;23.60;44.70;;;;;;7571430;23;81528;-62
2023/05/06 04:39:10;;;;;;;3.30;2.60;;;23.60;44.80;;;;;;7573351;23;82798;-63
2023/05/06 04:42:15;;;;;;;3.83;2.58;;;23.60;44.90;;;;;;7574200;23;82482;-61
2023/05/06 04:45:26;;;;;;;4.00;2.83;;;23.60;45.20;;;;;;7560810;23;83581;-62
2023/05/06 04:48:27;;;;;;;3.00;2.35;;;23.50;45.30;;;;;;7557309;23;81663;-64
2023/05/06 04:51:31;;;;;;;3.97;2.40;;;23.50;45.70;;;;;;7574892;23;81838;-63
2023/05/06 04:54:33;;;;;;;3.72;2.53;;;23.50;45.40;;;;;;7555289;23;82748;-63
2023/05/06 04:57:34;;;;;;;3.55;2.58;;;23.50;45.30;;;;;;7556348;23;82115;-61
2023/05/06 05:00:35;;;;;;;4.10;2.65;;;23.50;45.30;;;;;;7553757;23;82681;-63
2023/05/06 05:03:37;;;;;;;3.05;2.50;;;23.60;45.20;;;;;;7550626;23;81770;-64
2023/05/06 05:06:39;;;;;;;3.33;2.25;;;23.50;45.50;;;;;;7566669;23;83173;-67
2023/05/06 05:09:40;;;;;;;3.45;2.35;;;23.60;45.30;;;;;;7596645;23;80764;-58
2023/05/06 05:12:41;;;;;;;7.15;2.70;;;23.60;45.40;;;;;;7570090;23;83191;-73
2023/05/06 05:15:41;;;;;;;6.93;2.33;;;23.60;45.40;;;;;;7597252;23;80381;-77
2023/05/06 05:18:42;;;;;;;2.38;2.00;;;23.60;45.50;;;;;;7581653;23;82302;-73
2023/05/06 05:21:50;;;;;;;5.57;2.58;;;23.60;45.60;;;;;;7584218;23;83138;-72
2023/05/06 05:24:51;;;;;;;3.75;2.40;;;23.60;45.50;;;;;;7575541;23;82428;-60
2023/05/06 05:27:52;;;;;;;3.55;2.40;;;23.60;45.30;;;;;;7571983;23;81507;-59
2023/05/06 05:30:53;;;;;;;3.65;2.55;;;23.60;45.30;;;;;;7571361;23;83174;-60
2023/05/06 05:33:54;;;;;;;6.68;2.50;;;23.60;45.30;;;;;;7574533;23;82736;-59
2023/05/06 05:36:56;;;;;;;5.95;2.80;;;23.60;45.30;;;;;;7571322;23;81790;-55
2023/05/06 05:39:57;;;;;;;9.30;2.50;;;23.60;45.70;;;;;;7599932;23;80506;-59
2023/05/06 05:42:58;;;;;;;3.63;2.60;;;23.60;45.90;;;;;;7573160;23;82841;-63
2023/05/06 05:46:07;;;;;;;4.65;2.83;;;23.70;45.90;;;;;;7573545;23;83082;-64
2023/05/06 05:49:08;;;;;;;4.35;2.75;;;23.70;45.70;;;;;;7574532;23;82806;-66
2023/05/06 05:52:10;;;;;;;3.03;2.42;;;23.70;46.00;;;;;;7573272;23;83253;-65
2023/05/06 05:55:11;;;;;;;3.88;2.45;;;23.70;46.30;;;;;;7576261;23;81850;-64
2023/05/06 05:58:13;;;;;;;4.00;2.60;;;23.70;46.60;;;;;;7602257;23;81307;-64
2023/05/06 06:01:14;;;;;;;3.70;2.20;;;23.70;47.20;;;;;;7573804;23;82716;-65
2023/05/06 06:04:15;;;;;;;6.15;2.33;;;23.70;47.40;;;;;;7603391;23;80273;-66
2023/05/06 06:07:16;;;;;;;5.55;2.92;;;23.70;47.30;;;;;;7598240;23;80235;-65
2023/05/06 06:10:18;;;;;;;6.10;2.45;;;23.80;47.50;;;;;;7573299;23;83602;-59
2023/05/06 06:13:19;;;;;;;4.95;2.58;;;23.80;47.20;;;;;;7575031;23;83180;-59
2023/05/06 06:16:19;;;;;;;9.82;3.85;;;23.80;47.20;;;;;;7602884;23;79944;-63
2023/05/06 06:19:20;;;;;;;43.80;11.98;;;23.80;47.40;;;;;;7604026;23;80321;-64
2023/05/06 06:22:21;;;;;;;79.80;22.70;;;23.80;47.10;;;;;;7559713;23;83395;-61
2023/05/06 06:25:22;;;;;;;71.50;20.52;;;23.80;47.60;;;;;;7570190;23;86050;-65
2023/05/06 06:28:22;;;;;;;66.25;20.00;;;23.80;47.80;;;;;;7593065;23;83941;-61
2023/05/06 06:31:23;;;;;;;67.40;20.50;;;23.80;48.00;;;;;;7563929;23;86003;-58
2023/05/06 06:34:23;;;;;;;67.05;19.45;;;23.90;48.30;;;;;;7589629;23;83346;-59
2023/05/06 06:37:24;;;;;;;55.63;17.35;;;23.90;48.40;;;;;;7593082;23;84160;-72
2023/05/06 06:40:24;;;;;;;65.20;19.23;;;23.90;48.40;;;;;;7594168;23;83388;-77
2023/05/06 06:43:25;;;;;;;63.03;18.08;;;24.00;48.40;;;;;;7590937;23;83974;-71
2023/05/06 06:46:28;;;;;;;53.75;18.40;;;24.00;48.50;;;;;;7590161;23;82843;-64
2023/05/06 06:49:29;;;;;;;56.88;18.23;;;24.00;48.60;;;;;;7590648;23;84053;-72
2023/05/06 06:52:30;;;;;;;63.97;18.13;;;24.00;48.80;;;;;;7590430;23;83196;-75
2023/05/06 06:55:30;;;;;;;61.90;17.50;;;24.00;48.80;;;;;;7592876;23;83201;-61
2023/05/06 06:58:31;;;;;;;45.30;14.57;;;24.00;49.00;;;;;;7589699;23;84482;-61
2023/05/06 07:01:31;;;;;;;46.15;15.40;;;24.10;49.00;;;;;;7591658;23;82940;-60
2023/05/06 07:04:32;;;;;;;54.55;15.77;;;24.10;48.90;;;;;;7592903;23;83403;-61
2023/05/06 07:07:32;;;;;;;38.90;13.95;;;24.10;48.90;;;;;;7591802;23;83556;-60
2023/05/06 07:10:34;;;;;;;40.55;13.43;;;24.10;48.80;;;;;;7594585;23;83695;-60
2023/05/06 07:13:35;;;;;;;37.80;12.60;;;24.10;48.70;;;;;;7599414;23;83442;-59
2023/05/06 07:16:35;;;;;;;36.72;12.10;;;24.10;48.60;;;;;;7596837;23;83346;-61
2023/05/06 07:19:36;;;;;;;32.83;11.70;;;24.10;48.30;;;;;;7591461;23;83728;-59
2023/05/06 07:22:36;;;;;;;32.90;12.88;;;24.10;48.10;;;;;;7598813;23;83113;-61
2023/05/06 07:25:37;;;;;;;34.47;11.88;;;24.10;47.90;;;;;;7598334;23;83645;-53
2023/05/06 07:28:37;;;;;;;37.15;12.13;;;24.00;47.70;;;;;;7597802;23;83472;-64
2023/05/06 07:31:38;;;;;;;28.13;10.75;;;24.10;47.80;;;;;;7597271;23;83078;-61
2023/05/06 07:34:38;;;;;;;27.05;10.23;;;24.00;48.20;;;;;;7596381;23;84030;-60
2023/05/06 07:37:39;;;;;;;27.50;9.27;;;24.10;48.20;;;;;;7596778;23;90215;-62
2023/05/06 07:40:40;;;;;;;27.75;9.23;;;24.10;48.20;;;;;;7602940;23;82711;-62
2023/05/06 07:43:40;;;;;;;25.40;9.45;;;24.10;48.20;;;;;;7602793;23;80693;-61
2023/05/06 07:46:41;;;;;;;26.00;8.73;;;24.10;48.00;;;;;;7601987;23;80220;-61
2023/05/06 07:49:42;;;;;;;19.42;7.97;;;24.10;48.00;;;;;;7602754;23;80352;-55
2023/05/06 07:52:42;;;;;;;21.30;8.52;;;24.10;47.80;;;;;;7601756;23;80614;-56
2023/05/06 07:55:43;;;;;;;24.52;8.77;;;24.10;47.60;;;;;;7604057;23;80250;-57
2023/05/06 07:58:44;;;;;;;29.98;10.82;;;24.20;47.70;;;;;;7595855;23;81726;-61
2023/05/06 08:01:44;;;;;;;33.17;11.82;;;24.20;47.90;;;;;;7602322;23;82541;-60
2023/05/06 08:04:45;;;;;;;37.60;13.05;;;24.20;47.70;;;;;;7599931;23;83755;-56
2023/05/06 08:07:45;;;;;;;42.45;13.15;;;24.20;47.70;;;;;;7600688;23;83236;-72
2023/05/06 08:10:46;;;;;;;40.58;14.82;;;24.20;47.80;;;;;;7604883;23;83117;-74
2023/05/06 08:13:47;;;;;;;33.05;13.85;;;24.20;47.90;;;;;;7597046;23;82849;-70
2023/05/06 08:16:47;;;;;;;41.78;15.02;;;24.30;48.00;;;;;;7601928;23;83798;-70
2023/05/06 08:19:48;;;;;;;35.03;13.57;;;24.20;48.50;;;;;;7573834;23;83632;-71
2023/05/06 08:22:49;;;;;;;38.00;14.32;;;24.30;47.90;;;;;;7602665;23;83974;-71
2023/05/06 08:25:49;;;;;;;39.28;12.95;;;24.30;47.80;;;;;;7601150;23;82817;-67
2023/05/06 08:28:50;;;;;;;35.00;13.23;;;24.30;47.90;;;;;;7603353;23;83194;-73
2023/05/06 08:31:50;;;;;;;39.25;12.98;;;24.30;47.80;;;;;;7576814;23;85966;-75
2023/05/06 08:34:51;;;;;;;29.52;12.38;;;24.30;47.90;;;;;;7603822;23;83112;-73
2023/05/06 08:37:51;;;;;;;28.88;11.52;;;24.30;47.70;;;;;;7602850;23;83372;-69
2023/05/06 08:40:52;;;;;;;27.40;11.05;;;24.30;47.70;;;;;;7603361;23;84010;-73
2023/05/06 08:43:52;;;;;;;32.03;11.52;;;24.40;47.70;;;;;;7599892;23;82763;-72
2023/05/06 08:46:53;;;;;;;26.90;11.05;;;24.40;47.70;;;;;;7603440;23;83108;-68
2023/05/06 08:49:53;;;;;;;25.70;10.55;;;24.40;47.80;;;;;;7603996;23;82966;-71
2023/05/06 08:52:54;;;;;;;31.42;11.02;;;24.40;47.70;;;;;;7602785;23;85656;-70
2023/05/06 08:55:54;;;;;;;22.65;10.10;;;24.40;47.60;;;;;;7604172;23;82726;-70
2023/05/06 08:58:55;;;;;;;23.73;10.05;;;24.40;47.70;;;;;;7599690;23;83176;-71
2023/05/06 09:01:56;;;;;;;25.05;10.10;;;24.40;47.60;;;;;;7576928;23;82932;-68
2023/05/06 09:04:56;;;;;;;22.42;10.50;;;24.40;47.60;;;;;;7603798;23;83060;-61
2023/05/06 09:07:57;;;;;;;21.48;8.93;;;24.50;48.20;;;;;;7601992;23;83017;-61
2023/05/06 09:10:57;;;;;;;30.65;9.45;;;24.50;47.70;;;;;;7603028;23;83156;-61
2023/05/06 09:13:58;;;;;;;19.60;8.80;;;24.50;47.60;;;;;;7602335;23;81939;-60
2023/05/06 09:16:58;;;;;;;16.77;8.15;;;24.50;47.80;;;;;;7606823;23;80252;-60
2023/05/06 09:19:59;;;;;;;17.30;7.93;;;24.50;47.80;;;;;;7605897;23;80394;-60
2023/05/06 09:23:00;;;;;;;21.50;8.27;;;24.50;47.70;;;;;;7607323;23;80252;-61
2023/05/06 09:26:00;;;;;;;17.58;8.07;;;24.50;47.90;;;;;;7603220;23;80319;-62
2023/05/06 09:29:01;;;;;;;19.85;8.20;;;24.50;47.90;;;;;;7602283;23;80374;-61
2023/05/06 09:32:02;;;;;;;18.13;7.97;;;24.60;48.00;;;;;;7602769;23;80762;-61
2023/05/06 09:35:02;;;;;;;18.00;8.15;;;24.60;47.90;;;;;;7570437;23;80368;-59
2023/05/06 09:38:03;;;;;;;13.55;6.82;;;24.60;47.90;;;;;;7607386;23;80513;-59
2023/05/06 09:41:03;;;;;;;15.10;6.38;;;24.60;47.60;;;;;;7605195;23;80407;-59
2023/05/06 09:44:04;;;;;;;15.45;6.97;;;24.50;47.30;;;;;;7606256;23;80167;-60
2023/05/06 09:47:05;;;;;;;13.82;6.13;;;24.50;47.70;;;;;;7606448;23;84775;-60
2023/05/06 09:50:06;;;;;;;14.70;6.13;;;24.50;47.50;;;;;;7604696;23;80743;-61
2023/05/06 09:53:06;;;;;;;11.38;5.78;;;24.50;47.60;;;;;;7600095;23;80370;-61
2023/05/06 09:56:07;;;;;;;12.18;5.45;;;24.50;47.30;;;;;;7577477;23;80455;-62
2023/05/06 09:59:07;;;;;;;9.27;5.30;;;24.50;47.10;;;;;;7603620;23;80231;-62
2023/05/06 10:02:08;;;;;;;10.63;5.10;;;24.50;47.20;;;;;;7605063;23;80928;-62
2023/05/06 10:05:08;;;;;;;10.77;5.15;;;24.50;47.10;;;;;;7603394;23;80432;-58
2023/05/06 10:08:09;;;;;;;7.57;4.93;;;24.50;47.30;;;;;;7604338;23;81657;-61
2023/05/06 10:11:09;;;;;;;9.93;4.88;;;24.50;47.20;;;;;;7604046;23;80307;-60
2023/05/06 10:14:10;;;;;;;8.18;4.43;;;24.50;47.20;;;;;;7602110;23;81702;-60
2023/05/06 10:17:11;;;;;;;9.63;4.72;;;24.50;47.30;;;;;;7603547;23;80705;-63
2023/05/06 10:20:11;;;;;;;8.90;4.65;;;24.50;47.70;;;;;;7604069;23;80506;-63
2023/05/06 10:23:12;;;;;;;11.77;4.28;;;24.40;47.60;;;;;;7598597;23;80593;-65
2023/05/06 10:26:12;;;;;;;7.10;4.45;;;24.40;47.80;;;;;;7600368;23;80290;-65
2023/05/06 10:29:13;;;;;;;10.57;4.30;;;24.40;47.30;;;;;;7596131;23;80882;-64
2023/05/06 10:32:13;;;;;;;9.55;4.45;;;24.30;46.90;;;;;;7575057;23;82957;-66
2023/05/06 10:35:15;;;;;;;9.02;4.50;;;24.20;47.20;;;;;;7602847;23;81209;-60
2023/05/06 10:38:16;;;;;;;7.93;4.35;;;24.20;47.40;;;;;;7598739;23;80833;-59
2023/05/06 10:41:16;;;;;;;6.78;4.18;;;24.20;47.50;;;;;;7597076;23;80714;-59
2023/05/06 10:44:17;;;;;;;11.38;4.30;;;24.20;47.50;;;;;;7602312;23;80605;-59
2023/05/06 10:47:18;;;;;;;13.00;5.00;;;24.30;47.80;;;;;;7604253;23;80849;-57
2023/05/06 10:50:20;;;;;;;12.38;5.30;;;24.20;47.80;;;;;;7598866;23;84701;-59
2023/05/06 10:53:20;;;;;;;15.05;4.88;;;24.30;48.30;;;;;;7596510;23;80795;-62
2023/05/06 10:56:21;;;;;;;11.95;4.65;;;24.20;49.10;;;;;;7577207;23;81563;-61
2023/05/06 10:59:21;;;;;;;22.25;7.05;;;24.30;49.80;;;;;;7605160;23;80326;-61
2023/05/06 11:02:22;;;;;;;27.20;14.95;;;24.30;50.30;;;;;;7605779;23;80833;-61
2023/05/06 11:05:23;;;;;;;79.38;44.35;;;24.30;51.20;;;;;;7600866;23;84079;-65
2023/05/06 11:08:23;;;;;;;71.93;44.63;;;24.30;51.90;;;;;;7596085;23;83145;-66
2023/05/06 11:11:24;;;;;;;63.80;40.42;;;24.30;51.50;;;;;;7600653;23;82709;-64
2023/05/06 11:14:25;;;;;;;36.83;23.88;;;24.30;51.00;;;;;;7600293;23;83831;-63
2023/05/06 11:17:25;;;;;;;30.48;18.10;;;24.30;50.30;;;;;;7593673;23;84100;-63
2023/05/06 11:20:26;;;;;;;38.63;18.20;;;24.20;50.30;;;;;;7600580;23;83607;-61
2023/05/06 11:23:26;;;;;;;22.55;15.38;;;24.20;50.30;;;;;;7595334;23;84195;-60
2023/05/06 11:26:27;;;;;;;25.27;15.95;;;24.10;50.20;;;;;;7601883;23;84334;-61
2023/05/06 11:29:27;;;;;;;27.58;16.67;;;24.10;50.70;;;;;;7601171;23;82964;-66
2023/05/06 11:32:28;;;;;;;27.33;16.10;;;24.10;50.60;;;;;;7601795;23;83037;-67
2023/05/06 11:35:28;;;;;;;25.90;14.77;;;24.10;50.70;;;;;;7601671;23;83463;-65
2023/05/06 11:38:29;;;;;;;24.05;13.43;;;24.10;50.90;;;;;;7598091;23;84125;-66
2023/05/06 11:41:30;;;;;;;24.95;11.45;;;24.10;51.10;;;;;;7573526;23;84514;-69
2023/05/06 11:44:30;;;;;;;16.92;11.18;;;24.10;51.60;;;;;;7602066;23;82940;-68
2023/05/06 11:47:31;;;;;;;18.58;10.85;;;24.10;51.40;;;;;;7601081;23;83092;-67
2023/05/06 11:50:31;;;;;;;20.60;11.25;;;24.10;51.50;;;;;;7601546;23;83010;-62
2023/05/06 11:53:32;;;;;;;20.20;10.07;;;24.00;51.50;;;;;;7595755;23;84188;-62
2023/05/06 11:56:32;;;;;;;17.45;9.68;;;24.00;51.90;;;;;;7603449;23;83515;-61
2023/05/06 11:59:33;;;;;;;18.38;10.30;;;24.00;51.60;;;;;;7606022;23;81750;-60
2023/05/06 12:02:34;;;;;;;16.35;9.27;;;23.90;51.70;;;;;;7602525;23;82955;-62
2023/05/06 12:05:34;;;;;;;18.52;9.18;;;23.90;52.00;;;;;;7600483;23;81692;-62
2023/05/06 12:08:35;;;;;;;17.17;9.60;;;23.90;52.60;;;;;;7606713;23;80213;-62
2023/05/06 12:11:35;;;;;;;14.73;9.32;;;23.90;52.30;;;;;;7581622;23;82664;-62
2023/05/06 12:14:36;;;;;;;13.88;8.73;;;23.90;52.50;;;;;;7607196;23;80653;-61
2023/05/06 12:17:36;;;;;;;17.10;8.35;;;23.90;52.50;;;;;;7601875;23;81476;-62
2023/05/06 12:20:37;;;;;;;13.38;7.88;;;23.90;53.00;;;;;;7605382;23;80779;-60
2023/05/06 12:23:37;;;;;;;19.42;7.18;;;23.90;52.80;;;;;;7604925;23;80359;-63
2023/05/06 12:26:38;;;;;;;13.35;6.70;;;23.90;53.30;;;;;;7605924;23;81028;-67
2023/05/06 12:29:38;;;;;;;11.15;6.40;;;23.90;53.10;;;;;;7606034;23;80279;-66
2023/05/06 12:32:39;;;;;;;12.57;6.53;;;23.90;53.10;;;;;;7601975;23;88207;-63
2023/05/06 12:35:40;;;;;;;12.95;7.18;;;23.90;53.40;;;;;;7602919;23;80475;-64
2023/05/06 12:38:40;;;;;;;13.35;7.15;;;23.90;53.30;;;;;;7607724;22;80585;-63
2023/05/06 12:41:41;;;;;;;16.13;7.93;;;23.80;53.70;;;;;;7638215;22;80318;-63
2023/05/06 12:44:41;;;;;;;17.38;6.85;;;23.80;54.40;;;;;;7639358;22;81050;-66
2023/05/06 12:47:42;;;;;;;14.85;6.95;;;23.80;55.10;;;;;;7641473;22;80943;-67
2023/05/06 12:50:42;;;;;;;14.25;8.10;;;23.80;55.30;;;;;;7638693;22;80934;-71
2023/05/06 12:53:43;;;;;;;13.73;7.50;;;23.70;55.20;;;;;;7641953;22;80679;-72
2023/05/06 12:56:44;;;;;;;17.63;6.95;;;23.70;55.50;;;;;;7613314;22;80745;-73
2023/05/06 12:59:45;;;;;;;13.45;6.85;;;23.60;55.70;;;;;;7638513;22;80431;-65
2023/05/06 13:02:45;;;;;;;14.38;7.45;;;23.60;56.20;;;;;;7640706;22;80602;-69
2023/05/06 13:05:48;;;;;;;16.90;6.95;;;23.50;56.30;;;;;;7637479;22;80698;-73
2023/05/06 13:08:49;;;;;;;13.40;7.07;;;23.50;56.70;;;;;;7638752;22;86685;-69
2023/05/06 13:11:50;;;;;;;13.68;7.57;;;23.50;56.70;;;;;;7638965;22;80348;-71
2023/05/06 13:14:50;;;;;;;11.75;7.32;;;23.50;56.60;;;;;;7634821;22;81164;-70
2023/05/06 13:17:51;;;;;;;14.40;7.70;;;23.50;56.60;;;;;;7637765;22;80897;-69
2023/05/06 13:20:51;;;;;;;17.85;7.30;;;23.50;56.80;;;;;;7637016;22;81250;-64
2023/05/06 13:23:52;;;;;;;13.70;7.35;;;23.50;56.30;;;;;;7635004;22;80885;-64
2023/05/06 13:26:52;;;;;;;12.52;6.18;;;23.60;56.30;;;;;;7639383;22;81377;-62
2023/05/06 13:29:53;;;;;;;15.18;7.47;;;23.70;56.20;;;;;;7635775;22;80425;-64
2023/05/06 13:32:53;;;;;;;16.38;7.97;;;23.60;56.00;;;;;;7612221;22;83702;-66
2023/05/06 13:35:54;;;;;;;23.48;7.97;;;23.70;56.10;;;;;;7637050;22;80571;-68
2023/05/06 13:38:54;;;;;;;16.38;8.68;;;23.70;56.30;;;;;;7636083;22;80545;-63
2023/05/06 13:41:55;;;;;;;11.63;7.65;;;23.70;56.30;;;;;;7635545;22;81649;-61
2023/05/06 13:44:55;;;;;;;12.07;7.28;;;23.70;56.00;;;;;;7638869;22;80338;-62
2023/05/06 13:47:56;;;;;;;13.07;6.80;;;23.70;56.20;;;;;;7636972;22;81013;-64
2023/05/06 13:50:56;;;;;;;14.45;7.30;;;23.80;56.20;;;;;;7636714;22;80656;-64
2023/05/06 13:53:57;;;;;;;15.40;6.85;;;23.80;56.00;;;;;;7638294;22;80904;-63
2023/05/06 13:56:58;;;;;;;17.98;7.13;;;23.80;55.90;;;;;;7638211;22;80258;-63
2023/05/06 13:59:58;;;;;;;12.07;7.00;;;23.80;56.10;;;;;;7609709;22;83380;-63
2023/05/06 14:12:58;;;;;;;15.38;7.35;;;23.80;56.30;;;;;;7574181;22;81672;-64
2023/05/06 14:15:59;;;;;;;10.20;7.07;;;23.80;56.50;;;;;;7540326;23;81715;-64
2023/05/06 14:18:59;;;;;;;14.90;7.97;;;23.80;56.40;;;;;;7566226;23;80893;-64
2023/05/06 14:22:00;;;;;;;11.57;7.57;;;23.80;56.60;;;;;;7566314;23;80771;-64
2023/05/06 14:25:00;;;;;;;10.95;7.22;;;23.80;56.40;;;;;;7564718;23;80937;-63
2023/05/06 14:28:01;;;;;;;17.23;8.15;;;23.80;56.50;;;;;;7568068;23;82592;-62
2023/05/06 14:31:02;;;;;;;14.93;7.88;;;23.80;56.50;;;;;;7564163;23;81342;-61
2023/05/06 14:34:02;;;;;;;14.68;6.88;;;23.80;56.60;;;;;;7564983;23;80597;-67
2023/05/06 14:37:03;;;;;;;16.88;7.22;;;23.80;56.70;;;;;;7567836;23;80732;-61
2023/05/06 14:40:03;;;;;;;13.70;6.95;;;23.80;56.60;;;;;;7560747;23;81017;-64
2023/05/06 14:43:04;;;;;;;14.55;7.68;;;23.80;56.30;;;;;;7562728;23;86986;-68
2023/05/06 14:46:05;;;;;;;10.73;6.75;;;23.80;56.40;;;;;;7562873;23;80684;-70
2023/05/06 14:49:05;;;;;;;9.77;7.07;;;23.80;56.90;;;;;;7565917;23;80343;-66
2023/05/06 14:52:06;;;;;;;12.48;6.82;;;23.80;57.70;;;;;;7564639;23;80876;-61
2023/05/06 14:55:06;;;;;;;10.07;6.78;;;23.80;58.90;;;;;;7563570;23;81929;-62
2023/05/06 14:58:07;;;;;;;10.73;6.63;;;23.80;58.60;;;;;;7562705;23;81105;-60
2023/05/06 15:01:07;;;;;;;13.73;7.65;;;23.80;58.20;;;;;;7565049;23;80400;-53
2023/05/06 15:04:09;;;;;;;12.10;6.57;;;23.80;59.70;;;;;;7562331;23;81441;-62
2023/05/06 15:07:09;;;;;;;11.00;6.63;;;23.80;59.30;;;;;;7561964;23;80860;-61
2023/05/06 15:10:10;;;;;;;11.00;7.32;;;23.80;59.30;;;;;;7567196;23;80256;-67
2023/05/06 15:13:11;;;;;;;12.85;6.97;;;23.80;59.50;;;;;;7555496;23;81270;-69
2023/05/06 15:16:11;;;;;;;11.88;7.22;;;23.70;59.80;;;;;;7531380;23;83484;-68
2023/05/06 15:19:12;;;;;;;10.88;7.30;;;23.70;60.10;;;;;;7552464;23;83342;-72
2023/05/06 15:22:12;;;;;;;11.73;7.30;;;23.70;59.30;;;;;;7556674;23;81520;-60
2023/05/06 15:25:13;;;;;;;14.45;8.27;;;23.70;59.50;;;;;;7587144;23;80945;-60
2023/05/06 15:28:13;;;;;;;11.75;7.90;;;23.60;59.50;;;;;;7585483;23;80954;-60
2023/05/06 15:31:14;;;;;;;11.93;7.82;;;23.60;58.80;;;;;;7583642;23;80566;-59
2023/05/06 15:34:14;;;;;;;11.63;7.53;;;23.50;59.50;;;;;;7583042;23;81212;-62
2023/05/06 15:37:18;;;;;;;12.38;7.22;;;23.50;59.20;;;;;;7583528;23;81216;-61
2023/05/06 15:40:20;;;;;;;15.02;8.57;;;23.50;58.70;;;;;;7582632;23;81311;-60